Lake Melville: Past 24 Hour Conditions

 

St. Anthony Airport

11:30 AM NST 16 January 2018
Disclaimer

This table is a summary of hourly weather conditions for the past 24 hours.
Please note that these observations might not always be representative of weather conditions over their associated marine area.

Date / Time
(NST)
Wind(knots) Conditions Visibility(km) Pressure(kPa) Air tempC) Relative humidity(%) Dew pointC) Wind Chill
16 January 2018
11:30 N 7 Sunny 16 103.2 -12 78 -15 -18
10:30 NNE 4 Mostly Cloudy 16 103.3 -12 84 -15 -17
9:30 N 6 Mostly Cloudy 16 103.3 -13 83 -15 -19
8:30 N 4 Cloudy 16 103.4 -14 84 -16 -19
7:30 N 5 Mostly Cloudy 16 103.5 -14 85 -16 -20
6:30 N 3 Mostly Cloudy 16 103.7 -14 83 -16 -17
5:30 NNW 3 Partly Cloudy 16 103.7 -15 86 -16 -18
4:30 NW 4 Cloudy 16 103.8 -15 86 -17 -20
3:30 S 2 Clear 16 103.9 -15 84 -17 -18
2:30 S 5 Partly Cloudy 16 104.0 -15 83 -17 -21
1:30 calm Mostly Cloudy 16 104.0 -15 81 -17 *
0:30 NW 7 Cloudy 16 104.1 -15 80 -17 -22
15 January 2018
23:30 NW 6 Partly Cloudy 16 104.2 -15 78 -18 -22
22:30 WNW 8 Clear 16 104.2 -15 78 -18 -22
21:30 W 10 Mostly Cloudy 16 104.3 -15 78 -18 -23
20:30 W 9 Partly Cloudy 16 104.4 -16 81 -19 -25
19:30 WSW 8 Clear 16 104.4 -16 79 -19 -24
18:30 WSW 10 Clear 16 104.3 -16 77 -19 -25
17:30 WSW 10 Clear 16 104.3 -16 76 -19 -25
16:30 W 9 gust 17 Sunny 16 104.3 -16 73 -19 -24
15:30 W 13 gust 19 Sunny 16 104.3 -15 68 -20 -25
14:30 W 16 gust 23 Light Snow 16 104.2 -15 68 -20 -26
13:30 WSW 22 gust 27 Haze 5 104.2 -16 73 -20 -29
12:30 WSW 17 gust 22 Light Snow 16 104.3 -16 72 -20 -27
11:30 WSW 15 Sunny 16 104.3 -16 74 -20 -27

Zoom-in to make a selection

Map of Atlantic - Newfoundland marine weather areas Southwestern Grand Banks - 44138 Banquereau - 44139 Tail of the Bank - 44140 Nickerson Bank - 44251 Northeast Burgeo Bank - 44255 Blanc-Sablon Airport Cap Whittle Chevery Natashquan Airport Heath Point Miscou Island Grand Étang Ingonish Beach North Mountain St.Paul Island J.A. Douglas McCurdy Sydney Airport Charlottetown Airport East Point North Cape Argentia Bonavista Burgeo Cape Race Corner Brook Daniel's Harbour Englee Ferolle Point La Scie Port aux Basques Rocky Harbour Sagona Island St. Anthony Airport St. John's Int'l Airport St. Lawrence Stephenville Airport Twillingate Winterland Wreckhouse Cartwright Airport Mary's Harbour Grates Cove Pool's Island Marticot Island Long Pond Eskasoni (First Nations) Îles de la Madeleine Airport
Legend:
buoy Buoy
land station Land Station

Atlantic - Newfoundland Area

Another Region

What we are doing

Date modified: